Overview Statistics Trail Chart Weather Telemetry Raw packets
 

This is the latest recevied weather packets stored in our database for station/object N8TWM-13. If no packets are shown the sender has not sent any weather packets the latest 10 day(s).

<< 19 20 21 22 23 24 25 >>
Time Temp. Humidity Pressure Rain* Wind** Luminosity Snow
1788479267 22.22° C 88% 1017.8 hPa 0 mm - 0 W/m² -
1788478963 22.78° C 88% 1017.8 hPa 0 mm - 0 W/m² -
1788478659 22.78° C 87% 1017.8 hPa 0 mm - 0 W/m² -
1788478355 22.78° C 86% 1017.7 hPa 0 mm - 0 W/m² -
1788478053 22.78° C 86% 1017.7 hPa 0 mm - 0 W/m² -
1788477750 23.33° C 86% 1017.5 hPa 0 mm - 0 W/m² -
1788477449 23.33° C 85% 1017.5 hPa 0 mm - 1 W/m² -
1788477144 23.33° C 85% 1017.5 hPa 0 mm - 3 W/m² -
1788476839 23.33° C 85% 1017.5 hPa 0 mm - 6 W/m² -
1788476534 23.33° C 85% 1017.1 hPa 0 mm - 11 W/m² -
1788476231 23.89° C 84% 1017.1 hPa 0 mm - 15 W/m² -
1788475927 24.44° C 83% 1017.4 hPa 0 mm - 13 W/m² -
1788475623 26.11° C 80% 1017.1 hPa 0 mm - 11 W/m² -
1788475319 27.78° C 74% 1016.6 hPa 0 mm - 18 W/m² -
1788475019 27.78° C 74% 1015.9 hPa 0 mm - 38 W/m² -
1788474718 27.78° C 73% 1016 hPa 0 mm - 34 W/m² -
1788474418 27.78° C 73% 1016.1 hPa 0 mm - 27 W/m² -
1788474116 27.78° C 73% 1015.8 hPa 0 mm - 23 W/m² -
1788473812 27.22° C 74% 1015.7 hPa 0 mm - 22 W/m² -
1788473510 27.22° C 73% 1015.9 hPa 0 mm - 24 W/m² -
1788473209 27.22° C 73% 1015.7 hPa 0 mm - 27 W/m² -
1788472904 27.22° C 73% 1015.7 hPa 0 mm - 28 W/m² -
1788472603 27.22° C 73% 1015.8 hPa 0 mm - 30 W/m² -
1788472298 27.78° C 70% 1015.9 hPa 0 mm - 31 W/m² -
1788471997 29.44° C 66% 1015.9 hPa 0 mm - 33 W/m² -

* Rain latest hour (hover to see other rain measurements)
** Current wind speed in m/s (hover to see current wind gust speed)